TimePDT,TemperatureF,Dew PointF,Humidity,Sea Level PressureIn,VisibilityMPH,Wind Direction,Wind SpeedMPH,Gust SpeedMPH,PrecipitationIn,Events,Conditions,WindDirDegrees,DateUTC
12:53 AM,81.0,48.0,31,29.92,-9999.0,WNW,12.7,-,N/A,,Clear,290,2012-10-15 07:53:00
1:53 AM,82.0,50.0,33,29.91,-9999.0,WNW,12.7,-,N/A,,Clear,290,2012-10-15 08:53:00
2:53 AM,79.0,53.1,40,29.90,-9999.0,WNW,11.5,-,N/A,,Clear,290,2012-10-15 09:53:00
3:53 AM,75.9,55.9,50,29.89,-9999.0,WNW,13.8,-,N/A,,Clear,290,2012-10-15 10:53:00
4:53 AM,75.9,54.0,46,29.89,-9999.0,WNW,11.5,-,N/A,,Clear,290,2012-10-15 11:53:00
5:53 AM,75.0,54.0,48,29.89,-9999.0,West,8.1,-,N/A,,Clear,280,2012-10-15 12:53:00
6:53 AM,73.4,52.0,47,29.90,7.0,WNW,9.2,-,N/A,,Clear,290,2012-10-15 13:53:00
7:53 AM,76.5,52.0,42,29.91,7.0,WNW,9.2,-,N/A,,Partly Cloudy,300,2012-10-15 14:53:00
8:16 AM,77.0,51.8,41,29.94,6.0,NW,8.1,-,N/A,,Haze,310,2012-10-15 15:16:00
8:53 AM,76.5,52.0,42,29.93,7.0,WNW,6.9,-,N/A,,Scattered Clouds,300,2012-10-15 15:53:00
9:53 AM,79.9,51.1,37,29.93,7.0,Variable,4.6,-,N/A,,Scattered Clouds,0,2012-10-15 16:53:00
10:53 AM,76.1,57.9,53,29.93,7.0,WNW,11.5,-,N/A,,Partly Cloudy,300,2012-10-15 17:53:00
11:53 AM,81.0,54.0,39,29.92,7.0,NW,6.9,-,N/A,,Partly Cloudy,320,2012-10-15 18:53:00
12:53 PM,81.1,53.1,38,29.90,7.0,NW,6.9,-,N/A,,Partly Cloudy,310,2012-10-15 19:53:00
1:53 PM,84.2,50.0,30,29.88,7.0,Calm,Calm,-,N/A,,Partly Cloudy,0,2012-10-15 20:53:00
2:53 PM,84.7,50.0,30,29.86,7.0,NW,5.8,-,N/A,,Partly Cloudy,320,2012-10-15 21:53:00
3:53 PM,79.3,57.9,48,29.85,7.0,WNW,8.1,-,N/A,,Scattered Clouds,300,2012-10-15 22:53:00
4:53 PM,73.2,59.0,61,29.85,7.0,WNW,13.8,-,N/A,,Scattered Clouds,290,2012-10-15 23:53:00
5:53 PM,82.9,55.9,39,29.84,-9999.0,West,11.5,-,N/A,,Clear,280,2012-10-16 00:53:00
6:53 PM,75.9,55.0,48,29.84,-9999.0,West,15.0,-,N/A,,Clear,270,2012-10-16 01:53:00
7:53 PM,77.0,55.0,47,29.85,-9999.0,West,12.7,-,N/A,,Clear,280,2012-10-16 02:53:00
8:53 PM,78.1,54.0,43,29.85,-9999.0,West,10.4,-,N/A,,Clear,280,2012-10-16 03:53:00
9:53 PM,73.0,57.9,59,29.87,-9999.0,WNW,18.4,-,N/A,,Clear,290,2012-10-16 04:53:00
10:53 PM,73.0,57.0,57,29.86,-9999.0,West,13.8,-,N/A,,Clear,270,2012-10-16 05:53:00
11:53 PM,71.1,55.9,59,29.86,-9999.0,Calm,Calm,-,N/A,,Clear,0,2012-10-16 06:53:00